createdAt,value
2022-11-16T00:00:09.143Z,13.40
2022-11-16T00:01:09.132Z,19.50
2022-11-16T00:02:09.141Z,13.20
2022-11-16T00:03:09.114Z,12.20
2022-11-16T00:04:09.113Z,13.40
2022-11-16T00:05:09.088Z,11.90
2022-11-16T00:06:09.077Z,12.80
2022-11-16T00:07:09.121Z,15.00
2022-11-16T00:08:09.056Z,16.00
2022-11-16T00:09:09.056Z,13.80
2022-11-16T00:10:09.038Z,17.30
2022-11-16T00:11:09.028Z,14.60
2022-11-16T00:12:09.017Z,17.20
2022-11-16T00:13:09.008Z,14.80
2022-11-16T00:14:09.108Z,16.70
2022-11-16T00:15:08.984Z,16.70
2022-11-16T00:16:08.976Z,17.10
2022-11-16T00:17:08.975Z,19.80
2022-11-16T00:18:08.954Z,21.00
2022-11-16T00:19:08.961Z,23.60
2022-11-16T00:20:08.935Z,18.70
2022-11-16T00:21:08.924Z,17.90
2022-11-16T00:22:08.917Z,21.50
2022-11-16T00:23:08.903Z,19.10
2022-11-16T00:24:08.897Z,14.00
2022-11-16T00:25:08.882Z,21.70
2022-11-16T00:26:08.870Z,18.20
2022-11-16T00:27:08.862Z,18.60
2022-11-16T00:28:08.846Z,20.40
2022-11-16T00:29:08.848Z,18.30
2022-11-16T00:30:08.827Z,19.60
2022-11-16T00:31:08.820Z,25.20
2022-11-16T00:32:08.805Z,18.20
2022-11-16T00:33:08.791Z,19.70
2022-11-16T00:34:08.798Z,20.50
2022-11-16T00:35:08.775Z,21.80
2022-11-16T00:36:08.763Z,21.90
2022-11-16T00:37:08.753Z,18.70
2022-11-16T00:38:08.741Z,20.00
2022-11-16T00:39:08.742Z,18.30
2022-11-16T00:40:08.731Z,17.20
2022-11-16T00:41:08.718Z,23.60
2022-11-16T00:42:08.701Z,22.80
2022-11-16T00:43:08.685Z,20.40
2022-11-16T00:44:08.693Z,18.60
2022-11-16T00:45:08.670Z,26.20
2022-11-16T00:46:08.656Z,20.20
2022-11-16T00:47:08.646Z,18.80
2022-11-16T00:48:08.641Z,19.60
2022-11-16T00:49:08.638Z,20.20
2022-11-16T00:50:08.618Z,18.50
2022-11-16T00:51:08.608Z,18.40
2022-11-16T00:52:08.594Z,20.70
2022-11-16T00:53:08.587Z,21.70
2022-11-16T00:54:08.584Z,24.80
2022-11-16T00:55:08.573Z,24.50
2022-11-16T00:56:08.551Z,25.20
2022-11-16T00:57:08.541Z,23.50
2022-11-16T00:58:08.534Z,24.10
2022-11-16T00:59:08.537Z,22.70
2022-11-16T01:00:08.519Z,17.20
2022-11-16T01:01:08.550Z,18.30
2022-11-16T01:02:08.493Z,19.00
2022-11-16T01:03:08.478Z,22.90
2022-11-16T01:04:08.480Z,21.50
2022-11-16T01:05:08.460Z,23.20
2022-11-16T01:06:08.449Z,19.70
2022-11-16T01:07:08.496Z,19.10
2022-11-16T01:08:08.431Z,21.70
2022-11-16T01:09:08.437Z,30.80
2022-11-16T01:10:08.410Z,27.00
2022-11-16T01:11:08.397Z,25.20
2022-11-16T01:12:08.391Z,27.40
2022-11-16T01:13:08.382Z,24.90
2022-11-16T01:14:08.387Z,25.90
2022-11-16T01:15:08.361Z,21.70
2022-11-16T01:16:08.347Z,35.30
2022-11-16T01:17:08.336Z,24.50
2022-11-16T01:18:08.329Z,24.60
2022-11-16T01:19:08.320Z,22.90
2022-11-16T01:20:08.305Z,29.60
2022-11-16T01:21:08.292Z,30.90
2022-11-16T01:22:08.283Z,26.50
2022-11-16T01:23:08.270Z,23.90
2022-11-16T01:24:08.271Z,31.40
2022-11-16T01:25:08.254Z,26.00
2022-11-16T01:26:08.240Z,31.60
2022-11-16T01:27:08.218Z,30.30
2022-11-16T01:28:09.223Z,25.90
2022-11-16T01:29:08.230Z,35.10
2022-11-16T01:30:08.206Z,31.60
2022-11-16T01:31:08.193Z,26.00
2022-11-16T01:32:08.182Z,29.70
2022-11-16T01:33:08.174Z,29.30
2022-11-16T01:34:08.180Z,29.90
2022-11-16T01:35:08.214Z,35.50
2022-11-16T01:36:08.141Z,32.90
2022-11-16T01:37:08.130Z,29.80
2022-11-16T01:38:08.120Z,31.80
2022-11-16T01:39:08.109Z,25.50
2022-11-16T01:40:08.128Z,21.20
2022-11-16T01:41:08.090Z,25.60
2022-11-16T01:42:08.076Z,29.20
2022-11-16T01:43:08.065Z,22.70
2022-11-16T01:44:08.058Z,27.00
2022-11-16T01:45:08.061Z,27.20
2022-11-16T01:46:08.038Z,31.70
2022-11-16T01:47:08.027Z,31.30
2022-11-16T01:48:08.028Z,31.30
2022-11-16T01:49:08.003Z,23.90
2022-11-16T01:50:08.007Z,32.20
2022-11-16T01:51:07.981Z,30.20
2022-11-16T01:52:07.970Z,34.90
2022-11-16T01:53:07.963Z,30.00
2022-11-16T01:54:07.952Z,31.70
2022-11-16T01:55:07.952Z,31.90
2022-11-16T01:56:07.934Z,30.50
2022-11-16T01:57:07.921Z,32.70
2022-11-16T01:58:07.910Z,30.40
2022-11-16T01:59:07.897Z,25.10
2022-11-16T02:00:07.910Z,30.20
2022-11-16T02:01:07.910Z,31.90
2022-11-16T02:02:07.873Z,29.40
2022-11-16T02:03:07.858Z,30.40
2022-11-16T02:04:07.847Z,30.90
2022-11-16T02:05:07.847Z,29.40
2022-11-16T02:06:07.864Z,33.40
2022-11-16T02:07:07.959Z,29.60
2022-11-16T02:08:07.807Z,26.70
2022-11-16T02:09:07.794Z,31.30
2022-11-16T02:10:07.796Z,29.40
2022-11-16T02:11:07.774Z,27.60
2022-11-16T02:12:07.772Z,22.70
2022-11-16T02:13:07.752Z,25.80
2022-11-16T02:14:07.743Z,26.90
2022-11-16T02:15:07.745Z,28.90
2022-11-16T02:16:07.723Z,32.50
2022-11-16T02:17:07.735Z,36.80
2022-11-16T02:18:07.704Z,32.80
2022-11-16T02:19:07.688Z,24.90
2022-11-16T02:20:07.694Z,31.40
2022-11-16T02:21:07.670Z,24.10
2022-11-16T02:22:07.658Z,23.50
2022-11-16T02:23:07.651Z,23.70
2022-11-16T02:24:07.639Z,19.70
2022-11-16T02:25:07.640Z,22.20
2022-11-16T02:26:07.619Z,20.00
2022-11-16T02:27:07.604Z,19.60
2022-11-16T02:28:07.595Z,19.90
2022-11-16T02:29:07.589Z,25.50
2022-11-16T02:30:07.590Z,22.60
2022-11-16T02:31:07.561Z,21.70
2022-11-16T02:32:07.550Z,26.30
2022-11-16T02:33:07.541Z,24.70
2022-11-16T02:34:07.535Z,22.00
2022-11-16T02:35:07.531Z,23.10
2022-11-16T02:36:07.515Z,18.30
2022-11-16T02:37:07.505Z,23.10
2022-11-16T02:38:07.493Z,22.30
2022-11-16T02:39:07.484Z,21.70
2022-11-16T02:40:07.483Z,19.80
2022-11-16T02:41:07.460Z,22.10
2022-11-16T02:42:07.452Z,22.60
2022-11-16T02:43:07.437Z,28.50
2022-11-16T02:44:07.457Z,25.40
2022-11-16T02:45:07.430Z,24.90
2022-11-16T02:46:07.408Z,25.20
2022-11-16T02:47:07.400Z,25.30
2022-11-16T02:48:07.399Z,23.60
2022-11-16T02:49:07.383Z,24.70
2022-11-16T02:50:07.380Z,23.10
2022-11-16T02:51:07.355Z,24.60
2022-11-16T02:52:07.341Z,35.70
2022-11-16T02:53:07.331Z,24.30
2022-11-16T02:54:07.323Z,28.40
2022-11-16T02:55:07.324Z,28.30
2022-11-16T02:56:07.304Z,30.00
2022-11-16T02:57:07.291Z,24.20
2022-11-16T02:58:07.276Z,25.10
2022-11-16T02:59:07.272Z,26.10
2022-11-16T03:00:07.273Z,26.50
2022-11-16T03:01:07.291Z,26.70
2022-11-16T03:02:07.239Z,24.80
2022-11-16T03:03:07.235Z,30.80
2022-11-16T03:04:07.225Z,23.10
2022-11-16T03:05:07.226Z,21.70
2022-11-16T03:06:07.196Z,22.90
2022-11-16T03:07:07.221Z,25.90
2022-11-16T03:08:07.186Z,25.40
2022-11-16T03:09:07.166Z,25.40
2022-11-16T03:10:07.167Z,22.50
2022-11-16T03:11:07.145Z,21.80
2022-11-16T03:12:07.136Z,22.80
2022-11-16T03:13:07.125Z,29.10
2022-11-16T03:14:07.115Z,25.60
2022-11-16T03:15:07.114Z,26.10
2022-11-16T03:16:07.096Z,24.60
2022-11-16T03:17:07.086Z,22.30
2022-11-16T03:18:07.074Z,24.40
2022-11-16T03:19:07.063Z,28.20
2022-11-16T03:20:07.060Z,26.80
2022-11-16T03:21:07.044Z,31.50
2022-11-16T03:22:07.032Z,28.10
2022-11-16T03:23:07.029Z,30.60
2022-11-16T03:24:07.022Z,30.50
2022-11-16T03:25:07.020Z,27.90
2022-11-16T03:26:07.013Z,24.70
2022-11-16T03:27:07.038Z,29.20
2022-11-16T03:28:06.992Z,28.20
2022-11-16T03:29:06.967Z,30.90
2022-11-16T03:30:06.960Z,27.70
2022-11-16T03:31:06.945Z,30.20
2022-11-16T03:32:06.931Z,32.60
2022-11-16T03:33:06.925Z,34.80
2022-11-16T03:34:06.917Z,33.10
2022-11-16T03:35:06.914Z,35.20
2022-11-16T03:36:06.892Z,31.70
2022-11-16T03:37:06.878Z,48.30
2022-11-16T03:38:06.870Z,41.10
2022-11-16T03:39:06.864Z,38.00
2022-11-16T03:40:06.865Z,47.20
2022-11-16T03:41:06.847Z,33.40
2022-11-16T03:42:06.834Z,37.70
2022-11-16T03:43:06.824Z,43.20
2022-11-16T03:44:06.809Z,42.30
2022-11-16T03:45:06.814Z,38.70
2022-11-16T03:46:06.798Z,40.20
2022-11-16T03:47:06.779Z,44.00
2022-11-16T03:48:06.768Z,43.40
2022-11-16T03:49:06.758Z,40.00
2022-11-16T03:50:06.763Z,42.40
2022-11-16T03:51:06.738Z,38.70
2022-11-16T03:52:06.724Z,42.60
2022-11-16T03:53:06.715Z,41.80
2022-11-16T03:54:06.709Z,47.80
2022-11-16T03:55:06.706Z,47.50
2022-11-16T03:56:06.697Z,53.20
2022-11-16T03:57:06.674Z,40.80
2022-11-16T03:58:06.660Z,38.60
2022-11-16T03:59:06.652Z,35.00
2022-11-16T04:00:06.657Z,41.60
2022-11-16T04:01:06.742Z,43.90
2022-11-16T04:02:06.622Z,48.30
2022-11-16T04:03:06.622Z,37.80
2022-11-16T04:04:06.612Z,45.00
2022-11-16T04:05:06.605Z,34.70
2022-11-16T04:06:06.582Z,35.90
2022-11-16T04:07:06.640Z,40.80
2022-11-16T04:08:06.559Z,34.20
2022-11-16T04:09:06.555Z,32.20
2022-11-16T04:10:06.553Z,29.90
2022-11-16T04:11:06.536Z,30.60
2022-11-16T04:12:06.525Z,37.80
2022-11-16T04:13:06.511Z,36.30
2022-11-16T04:14:09.098Z,28.90
2022-11-16T04:15:07.505Z,30.50
2022-11-16T04:16:06.483Z,34.00
2022-11-16T04:17:06.478Z,28.20
2022-11-16T04:18:06.462Z,34.40
2022-11-16T04:19:06.450Z,35.40
2022-11-16T04:20:06.452Z,33.40
2022-11-16T04:21:06.433Z,32.30
2022-11-16T04:22:06.422Z,32.90
2022-11-16T04:23:06.423Z,39.10
2022-11-16T04:24:06.410Z,30.30
2022-11-16T04:25:06.413Z,34.40
2022-11-16T04:26:06.386Z,31.60
2022-11-16T04:27:06.370Z,36.30
2022-11-16T04:28:06.360Z,32.90
2022-11-16T04:29:06.348Z,33.50
2022-11-16T04:30:06.354Z,35.90
2022-11-16T04:31:06.328Z,33.00
2022-11-16T04:32:06.313Z,36.40
2022-11-16T04:33:06.299Z,33.00
2022-11-16T04:34:06.299Z,41.70
2022-11-16T04:35:06.282Z,39.30
2022-11-16T04:36:06.283Z,46.30
2022-11-16T04:37:06.263Z,42.70
2022-11-16T04:38:06.262Z,43.20
2022-11-16T04:39:06.245Z,39.20
2022-11-16T04:40:06.250Z,41.20
2022-11-16T04:41:06.235Z,36.40
2022-11-16T04:42:06.212Z,41.40
2022-11-16T04:43:06.202Z,38.30
2022-11-16T04:44:06.198Z,44.60
2022-11-16T04:45:06.181Z,38.80
2022-11-16T04:46:06.191Z,40.20
2022-11-16T04:47:06.164Z,45.80
2022-11-16T04:48:06.153Z,44.10
2022-11-16T04:49:06.147Z,42.00
2022-11-16T04:50:06.135Z,41.60
2022-11-16T04:51:06.133Z,42.60
2022-11-16T04:52:06.114Z,36.40
2022-11-16T04:53:06.112Z,42.80
2022-11-16T04:54:06.087Z,49.70
2022-11-16T04:55:06.081Z,54.00
2022-11-16T04:56:06.078Z,44.40
2022-11-16T04:57:06.058Z,48.30
2022-11-16T04:58:06.051Z,49.50
2022-11-16T04:59:06.049Z,46.70
2022-11-16T05:00:06.054Z,57.90
2022-11-16T05:01:06.066Z,51.20
2022-11-16T05:02:06.005Z,50.00
2022-11-16T05:03:06.005Z,51.00
2022-11-16T05:04:05.987Z,55.90
2022-11-16T05:05:05.974Z,52.40
2022-11-16T05:06:05.974Z,49.80
2022-11-16T05:07:05.969Z,54.80
2022-11-16T05:08:05.945Z,50.90
2022-11-16T05:09:05.936Z,58.30
2022-11-16T05:10:05.921Z,55.10
2022-11-16T05:11:05.923Z,51.70
2022-11-16T05:12:05.903Z,51.30
2022-11-16T05:13:05.897Z,56.20
2022-11-16T05:14:05.885Z,49.20
2022-11-16T05:15:05.872Z,53.30
2022-11-16T05:16:05.867Z,71.10
2022-11-16T05:17:05.851Z,69.60
2022-11-16T05:18:05.837Z,50.70
2022-11-16T05:19:05.827Z,59.90
2022-11-16T05:20:05.829Z,77.90
2022-11-16T05:21:05.818Z,53.70
2022-11-16T05:22:05.797Z,59.00
2022-11-16T05:23:05.787Z,62.10
2022-11-16T05:24:05.788Z,59.20
2022-11-16T05:25:05.764Z,60.40
2022-11-16T05:26:05.764Z,66.00
2022-11-16T05:27:05.745Z,56.20
2022-11-16T05:28:05.735Z,66.60
2022-11-16T05:29:05.725Z,69.00
2022-11-16T05:30:05.715Z,66.50
2022-11-16T05:31:05.714Z,62.40
2022-11-16T05:32:05.701Z,65.90
2022-11-16T05:33:05.686Z,63.20
2022-11-16T05:34:05.677Z,57.90
2022-11-16T05:35:05.664Z,58.70
2022-11-16T05:36:05.668Z,61.30
2022-11-16T05:37:05.648Z,61.70
2022-11-16T05:38:05.639Z,83.80
2022-11-16T05:39:05.628Z,72.50
2022-11-16T05:40:05.630Z,64.80
2022-11-16T05:41:05.626Z,60.50
2022-11-16T05:42:05.604Z,69.60
2022-11-16T05:43:05.588Z,61.60
2022-11-16T05:44:05.580Z,54.50
2022-11-16T05:45:05.572Z,65.20
2022-11-16T05:46:05.574Z,67.80
2022-11-16T05:47:05.552Z,82.10
2022-11-16T05:48:05.545Z,81.00
2022-11-16T05:49:05.535Z,66.20
2022-11-16T05:50:05.521Z,74.90
2022-11-16T05:51:05.519Z,63.50
2022-11-16T05:52:05.505Z,95.50
2022-11-16T05:53:05.497Z,82.70
2022-11-16T05:54:05.481Z,71.60
2022-11-16T05:55:05.475Z,79.60
2022-11-16T05:56:05.523Z,65.00
2022-11-16T05:57:05.459Z,68.10
2022-11-16T05:58:05.443Z,84.80
2022-11-16T05:59:05.440Z,78.50
2022-11-16T06:00:05.429Z,65.90
2022-11-16T06:01:05.432Z,94.10
2022-11-16T06:02:05.409Z,108.20
2022-11-16T06:03:05.500Z,69.00
2022-11-16T06:04:05.387Z,88.90
2022-11-16T06:05:05.416Z,104.80
2022-11-16T06:06:05.372Z,114.40
2022-11-16T06:07:05.393Z,93.00
2022-11-16T06:08:05.346Z,97.40
2022-11-16T06:09:05.337Z,92.70
2022-11-16T06:10:05.326Z,107.30
2022-11-16T06:11:05.327Z,113.50
2022-11-16T06:12:05.300Z,118.20
2022-11-16T06:13:05.291Z,98.30
2022-11-16T06:14:05.290Z,138.70
2022-11-16T06:15:05.342Z,104.10
2022-11-16T06:16:05.472Z,117.80
2022-11-16T06:17:05.254Z,94.60
2022-11-16T06:18:05.246Z,99.40
2022-11-16T06:19:05.235Z,113.80
2022-11-16T06:20:05.293Z,111.70
2022-11-16T06:21:05.229Z,105.00
2022-11-16T06:22:05.213Z,85.70
2022-11-16T06:23:05.207Z,129.20
2022-11-16T06:24:05.188Z,119.20
2022-11-16T06:25:05.192Z,84.10
2022-11-16T06:26:05.175Z,121.00
2022-11-16T06:27:06.160Z,84.30
2022-11-16T06:28:07.851Z,90.30
2022-11-16T06:29:06.144Z,90.70
2022-11-16T06:30:05.134Z,95.20
2022-11-16T06:31:05.131Z,125.30
2022-11-16T06:32:05.201Z,111.70
2022-11-16T06:33:05.112Z,109.70
2022-11-16T06:34:05.097Z,125.20
2022-11-16T06:35:05.085Z,110.70
2022-11-16T06:36:05.088Z,107.80
2022-11-16T06:37:05.066Z,109.50
2022-11-16T06:38:05.061Z,101.40
2022-11-16T06:39:05.053Z,112.40
2022-11-16T06:40:05.042Z,120.20
2022-11-16T06:41:05.037Z,112.20
2022-11-16T06:42:05.020Z,107.60
2022-11-16T06:43:05.005Z,118.50
2022-11-16T06:44:05.003Z,130.60
2022-11-16T06:45:04.997Z,100.40
2022-11-16T06:46:04.997Z,101.50
2022-11-16T06:47:04.973Z,97.30
2022-11-16T06:48:05.238Z,102.90
2022-11-16T06:49:04.952Z,126.40
2022-11-16T06:50:04.957Z,100.70
2022-11-16T06:51:04.952Z,89.10
2022-11-16T06:52:04.940Z,110.10
2022-11-16T06:53:04.915Z,105.70
2022-11-16T06:54:04.904Z,104.00
2022-11-16T06:55:04.894Z,164.80
2022-11-16T06:56:04.906Z,135.50
2022-11-16T06:57:04.878Z,127.80
2022-11-16T06:58:04.874Z,95.80
2022-11-16T06:59:04.863Z,85.10
2022-11-16T07:00:04.878Z,110.30
2022-11-16T07:01:04.851Z,97.80
2022-11-16T07:02:04.887Z,94.50
2022-11-16T07:03:04.863Z,152.60
2022-11-16T07:04:04.815Z,134.90
2022-11-16T07:05:04.803Z,120.10
2022-11-16T07:06:04.796Z,89.60
2022-11-16T07:07:04.834Z,87.90
2022-11-16T07:08:04.774Z,72.50
2022-11-16T07:09:04.770Z,75.10
2022-11-16T07:10:04.757Z,123.10
2022-11-16T07:11:04.759Z,100.50
2022-11-16T07:12:04.736Z,78.90
2022-11-16T07:13:04.727Z,89.20
2022-11-16T07:14:04.717Z,149.50
2022-11-16T07:15:04.705Z,98.90
2022-11-16T07:16:04.692Z,104.60
2022-11-16T07:17:09.505Z,122.50
2022-11-16T07:18:05.687Z,135.50
2022-11-16T07:19:04.669Z,125.70
2022-11-16T07:20:04.722Z,95.80
2022-11-16T07:21:04.654Z,87.10
2022-11-16T07:22:04.648Z,95.00
2022-11-16T07:23:04.638Z,72.70
2022-11-16T07:24:04.626Z,85.60
2022-11-16T07:25:04.624Z,86.10
2022-11-16T07:26:04.610Z,65.30
2022-11-16T07:27:04.605Z,77.30
2022-11-16T07:28:04.588Z,75.60
2022-11-16T07:29:04.577Z,73.70
2022-11-16T07:30:04.568Z,107.80
2022-11-16T07:31:04.555Z,76.50
2022-11-16T07:32:04.554Z,75.30
2022-11-16T07:33:04.540Z,62.30
2022-11-16T07:34:04.533Z,62.20
2022-11-16T07:35:04.521Z,98.60
2022-11-16T07:36:04.511Z,98.10
2022-11-16T07:37:04.516Z,86.90
2022-11-16T07:38:04.496Z,83.80
2022-11-16T07:39:04.485Z,81.50
2022-11-16T07:40:04.473Z,138.50
2022-11-16T07:41:04.463Z,88.80
2022-11-16T07:42:04.463Z,93.60
2022-11-16T07:43:04.446Z,93.60
2022-11-16T07:44:07.372Z,70.80
2022-11-16T07:45:05.424Z,96.20
2022-11-16T07:47:06.419Z,84.00
2022-11-16T07:48:04.400Z,86.50
2022-11-16T07:49:09.819Z,85.30
2022-11-16T07:50:06.382Z,95.30
2022-11-16T07:51:04.563Z,89.30
2022-11-16T07:52:04.404Z,95.90
2022-11-16T07:53:04.349Z,84.00
2022-11-16T07:54:04.342Z,72.80
2022-11-16T07:55:04.380Z,86.80
2022-11-16T07:56:04.323Z,78.50
2022-11-16T07:57:04.332Z,88.80
2022-11-16T07:58:04.302Z,75.80
2022-11-16T07:59:04.309Z,101.50
2022-11-16T08:00:04.283Z,79.50
2022-11-16T08:01:04.273Z,71.90
2022-11-16T08:02:04.332Z,71.00
2022-11-16T08:03:04.256Z,79.40
2022-11-16T08:04:04.244Z,112.00
2022-11-16T08:05:04.233Z,120.90
2022-11-16T08:06:04.224Z,139.70
2022-11-16T08:07:04.260Z,98.50
2022-11-16T08:08:04.297Z,87.90
2022-11-16T08:09:04.203Z,78.20
2022-11-16T08:10:04.279Z,70.80
2022-11-16T08:11:04.173Z,70.60
2022-11-16T08:12:04.182Z,71.90
2022-11-16T08:13:04.168Z,102.30
2022-11-16T08:14:04.147Z,195.20
2022-11-16T08:15:04.143Z,102.60
2022-11-16T08:16:04.138Z,84.10
2022-11-16T08:17:04.111Z,93.80
2022-11-16T08:18:04.113Z,90.80
2022-11-16T08:19:04.093Z,71.60
2022-11-16T08:20:04.214Z,90.60
2022-11-16T08:21:04.092Z,81.20
2022-11-16T08:22:04.073Z,94.10
2022-11-16T08:23:04.056Z,92.80
2022-11-16T08:24:04.160Z,95.20
2022-11-16T08:25:04.042Z,106.80
2022-11-16T08:26:04.046Z,76.10
2022-11-16T08:27:04.021Z,82.60
2022-11-16T08:28:04.009Z,152.80
2022-11-16T08:29:04.003Z,118.90
2022-11-16T08:30:03.997Z,155.10
2022-11-16T08:31:03.999Z,110.70
2022-11-16T08:32:03.977Z,93.90
2022-11-16T08:33:03.984Z,73.30
2022-11-16T08:34:03.959Z,95.70
2022-11-16T08:35:03.946Z,80.10
2022-11-16T08:36:05.399Z,74.60
2022-11-16T08:37:03.939Z,94.20
2022-11-16T08:38:03.916Z,91.90
2022-11-16T08:39:03.908Z,81.50
2022-11-16T08:40:03.980Z,61.50
2022-11-16T08:41:03.888Z,93.70
2022-11-16T08:42:03.898Z,76.90
2022-11-16T08:43:03.867Z,81.10
2022-11-16T08:44:03.862Z,83.50
2022-11-16T08:45:03.857Z,84.10
2022-11-16T08:46:03.839Z,82.60
2022-11-16T08:47:03.844Z,72.30
2022-11-16T08:48:04.416Z,59.70
2022-11-16T08:49:04.813Z,70.00
2022-11-16T08:50:03.804Z,78.30
2022-11-16T08:51:19.283Z,69.30
2022-11-16T08:52:05.794Z,72.10
2022-11-16T08:53:03.769Z,73.50
2022-11-16T08:54:03.763Z,88.90
2022-11-16T08:55:03.753Z,63.20
2022-11-16T08:56:03.831Z,62.10
2022-11-16T08:57:03.746Z,74.80
2022-11-16T08:58:03.726Z,62.30
2022-11-16T08:59:03.715Z,61.00
2022-11-16T09:00:03.704Z,63.30
2022-11-16T09:01:03.736Z,59.80
2022-11-16T09:02:03.729Z,83.40
2022-11-16T09:03:03.677Z,67.30
2022-11-16T09:04:03.663Z,67.30
2022-11-16T09:05:03.656Z,99.10
2022-11-16T09:06:03.648Z,116.60
2022-11-16T09:07:03.674Z,66.10
2022-11-16T09:08:03.628Z,163.90
2022-11-16T09:09:03.614Z,96.10
2022-11-16T09:10:03.602Z,76.90
2022-11-16T09:11:03.589Z,89.40
2022-11-16T09:12:03.594Z,96.70
2022-11-16T09:13:03.571Z,77.80
2022-11-16T09:14:03.567Z,88.20
2022-11-16T09:15:03.559Z,71.20
2022-11-16T09:16:03.548Z,86.30
2022-11-16T09:17:03.547Z,68.20
2022-11-16T09:18:03.529Z,70.20
2022-11-16T09:19:03.515Z,97.90
2022-11-16T09:20:03.504Z,65.60
2022-11-16T09:21:03.492Z,82.90
2022-11-16T09:22:03.500Z,101.70
2022-11-16T09:23:03.476Z,108.70
2022-11-16T09:24:03.463Z,129.50
2022-11-16T09:25:03.464Z,135.00
2022-11-16T09:26:03.448Z,113.30
2022-11-16T09:27:04.450Z,82.60
2022-11-16T09:28:03.543Z,90.00
2022-11-16T09:29:03.431Z,81.00
2022-11-16T09:30:03.430Z,89.80
2022-11-16T09:31:03.399Z,70.50
2022-11-16T09:32:03.404Z,86.60
2022-11-16T09:33:03.395Z,70.10
2022-11-16T09:34:03.374Z,60.30
2022-11-16T09:35:03.374Z,69.40
2022-11-16T09:36:03.356Z,106.10
2022-11-16T09:37:03.351Z,69.40
2022-11-16T09:38:03.335Z,71.00
2022-11-16T09:39:29.535Z,71.20
2022-11-16T09:40:05.372Z,65.50
2022-11-16T09:41:03.305Z,62.60
2022-11-16T09:42:03.353Z,67.80
2022-11-16T09:43:03.295Z,59.10
2022-11-16T09:44:03.369Z,60.50
2022-11-16T09:45:03.267Z,64.40
2022-11-16T09:46:03.266Z,68.60
2022-11-16T09:47:03.257Z,93.10
2022-11-16T09:48:03.236Z,89.20
2022-11-16T09:49:03.224Z,74.40
2022-11-16T09:50:03.402Z,62.30
2022-11-16T09:51:04.221Z,57.90
2022-11-16T09:52:03.210Z,72.30
2022-11-16T09:53:03.191Z,79.30
2022-11-16T09:54:03.183Z,68.60
2022-11-16T09:55:03.167Z,76.60
2022-11-16T09:56:03.157Z,70.80
2022-11-16T09:57:05.619Z,65.90
2022-11-16T09:58:05.145Z,59.50
2022-11-16T09:59:03.130Z,63.70
2022-11-16T10:00:03.121Z,72.30
2022-11-16T10:01:03.151Z,76.20
2022-11-16T10:02:03.112Z,65.80
2022-11-16T10:03:03.117Z,85.80
2022-11-16T10:04:03.084Z,63.20
2022-11-16T10:05:03.102Z,63.20
2022-11-16T10:06:03.083Z,65.00
2022-11-16T10:07:03.105Z,67.00
2022-11-16T10:08:03.042Z,78.10
2022-11-16T10:09:03.035Z,54.90
2022-11-16T10:10:03.023Z,57.80
2022-11-16T10:11:03.012Z,53.30
2022-11-16T10:12:03.032Z,57.80
2022-11-16T10:13:02.996Z,51.40
2022-11-16T10:14:04.427Z,61.50
2022-11-16T10:15:03.975Z,64.00
2022-11-16T10:16:02.962Z,53.70
2022-11-16T10:17:02.977Z,62.00
2022-11-16T10:18:02.949Z,58.60
2022-11-16T10:19:02.939Z,96.40
2022-11-16T10:20:02.931Z,62.80
2022-11-16T10:21:02.917Z,61.50
2022-11-16T10:22:02.935Z,57.70
2022-11-16T10:23:02.898Z,66.10
2022-11-16T10:24:02.893Z,55.50
2022-11-16T10:25:02.887Z,60.10
2022-11-16T10:26:02.875Z,59.50
2022-11-16T10:27:02.862Z,63.50
2022-11-16T10:28:02.852Z,103.60
2022-11-16T10:29:02.838Z,55.50
2022-11-16T10:30:02.833Z,68.60
2022-11-16T10:31:02.820Z,68.90
2022-11-16T10:32:02.835Z,68.60
2022-11-16T10:33:06.678Z,66.70
2022-11-16T10:34:03.785Z,58.10
2022-11-16T10:35:02.772Z,60.80
2022-11-16T10:36:02.769Z,86.50
2022-11-16T10:37:02.768Z,58.70
2022-11-16T10:38:02.744Z,62.70
2022-11-16T10:39:02.736Z,62.40
2022-11-16T10:40:02.724Z,56.50
2022-11-16T10:41:02.714Z,65.20
2022-11-16T10:42:07.286Z,58.20
2022-11-16T10:43:04.691Z,70.10
2022-11-16T10:44:02.690Z,111.70
2022-11-16T10:45:02.671Z,62.00
2022-11-16T10:46:02.663Z,61.60
2022-11-16T10:47:02.656Z,81.30
2022-11-16T10:48:02.728Z,90.80
2022-11-16T10:49:02.628Z,76.20
2022-11-16T10:50:02.618Z,73.80
2022-11-16T10:51:02.619Z,65.00
2022-11-16T10:52:02.609Z,59.80
2022-11-16T10:53:02.587Z,57.90
2022-11-16T10:54:02.580Z,63.30
2022-11-16T10:55:02.571Z,80.80
2022-11-16T10:56:02.557Z,72.30
2022-11-16T10:57:02.568Z,103.80
2022-11-16T10:58:02.540Z,116.90
2022-11-16T10:59:02.524Z,101.00
2022-11-16T11:00:02.519Z,70.90
2022-11-16T11:01:02.603Z,64.70
2022-11-16T11:02:02.506Z,70.00
2022-11-16T11:03:02.481Z,70.10
2022-11-16T11:04:02.559Z,62.70
2022-11-16T11:05:02.459Z,63.50
2022-11-16T11:06:02.454Z,61.10
2022-11-16T11:07:02.491Z,67.50
2022-11-16T11:08:02.446Z,65.10
2022-11-16T11:09:02.415Z,52.80
2022-11-16T11:10:02.411Z,74.60
2022-11-16T11:11:02.397Z,54.80
2022-11-16T11:12:02.389Z,98.60
2022-11-16T11:13:02.392Z,100.70
2022-11-16T11:14:02.378Z,51.30
2022-11-16T11:15:02.356Z,56.50
2022-11-16T11:16:02.346Z,59.20
2022-11-16T11:17:02.334Z,52.40
2022-11-16T11:18:02.333Z,70.20
2022-11-16T11:19:02.316Z,60.50
2022-11-16T11:20:02.327Z,53.50
2022-11-16T11:21:02.301Z,72.10
2022-11-16T11:22:02.295Z,61.90
2022-11-16T11:23:02.287Z,52.90
2022-11-16T11:24:29.362Z,46.70
2022-11-16T11:25:04.254Z,70.00
2022-11-16T11:26:02.249Z,46.00
2022-11-16T11:27:02.233Z,46.70
2022-11-16T11:28:02.245Z,46.60
2022-11-16T11:29:02.213Z,55.30
2022-11-16T11:30:02.262Z,65.50
2022-11-16T11:31:02.193Z,46.70
2022-11-16T11:32:02.180Z,51.00
2022-11-16T11:33:02.187Z,45.50
2022-11-16T11:34:02.163Z,42.30
2022-11-16T11:35:02.155Z,41.50
2022-11-16T11:36:02.226Z,41.50
2022-11-16T11:37:02.135Z,35.50
2022-11-16T11:38:07.428Z,31.70
2022-11-16T11:39:04.161Z,33.20
2022-11-16T11:40:02.107Z,31.60
2022-11-16T11:41:02.086Z,30.40
2022-11-16T11:42:02.082Z,32.30
2022-11-16T11:43:02.088Z,33.10
2022-11-16T11:44:02.059Z,26.10
2022-11-16T11:45:02.042Z,24.30
2022-11-16T11:46:02.038Z,20.80
2022-11-16T11:48:04.032Z,19.20
2022-11-16T11:49:02.002Z,22.10
2022-11-16T11:50:01.986Z,22.70
2022-11-16T11:51:02.980Z,21.50
2022-11-16T11:52:02.055Z,20.50
2022-11-16T11:53:01.971Z,20.90
2022-11-16T11:54:01.953Z,19.90
2022-11-16T11:55:01.940Z,22.00
2022-11-16T11:56:01.931Z,23.80
2022-11-16T11:57:01.919Z,18.80
2022-11-16T11:58:01.921Z,20.80
2022-11-16T11:59:01.903Z,17.90
2022-11-16T12:00:01.909Z,20.00
2022-11-16T12:01:01.881Z,17.70
2022-11-16T12:02:01.866Z,24.90
2022-11-16T12:03:01.908Z,19.70
2022-11-16T12:04:01.852Z,20.70
2022-11-16T12:05:01.838Z,17.70
2022-11-16T12:06:01.825Z,18.40
2022-11-16T12:07:01.872Z,17.60
2022-11-16T12:08:01.819Z,17.50
2022-11-16T12:09:01.797Z,18.30
2022-11-16T12:10:01.784Z,19.00
2022-11-16T12:11:01.797Z,18.90
2022-11-16T12:12:01.775Z,19.20
2022-11-16T12:13:01.782Z,18.50
2022-11-16T12:14:01.747Z,17.50
2022-11-16T12:15:01.731Z,21.10
2022-11-16T12:16:01.724Z,21.50
2022-11-16T12:17:01.714Z,17.70
2022-11-16T12:18:01.717Z,23.60
2022-11-16T12:19:01.698Z,17.20
2022-11-16T12:20:01.686Z,16.40
2022-11-16T12:21:01.671Z,15.30
2022-11-16T12:22:01.664Z,13.50
2022-11-16T12:23:04.227Z,15.30
2022-11-16T12:24:02.727Z,14.80
2022-11-16T12:25:01.627Z,13.80
2022-11-16T12:26:01.621Z,11.80
2022-11-16T12:27:01.606Z,11.10
2022-11-16T12:28:01.611Z,15.00
2022-11-16T12:29:01.588Z,12.60
2022-11-16T12:30:01.578Z,12.00
2022-11-16T12:31:01.565Z,16.10
2022-11-16T12:32:01.576Z,14.20
2022-11-16T12:33:01.562Z,11.70
2022-11-16T12:34:01.532Z,14.50
2022-11-16T12:35:01.525Z,11.90
2022-11-16T12:36:01.509Z,15.20
2022-11-16T12:37:01.506Z,16.40
2022-11-16T12:38:01.501Z,12.00
2022-11-16T12:39:01.484Z,12.40
2022-11-16T12:40:01.555Z,15.90
2022-11-16T12:41:01.463Z,11.90
2022-11-16T12:42:01.451Z,15.30
2022-11-16T12:43:01.451Z,14.50
2022-11-16T12:44:01.428Z,14.60
2022-11-16T12:45:01.419Z,12.20
2022-11-16T12:46:01.408Z,14.40
2022-11-16T12:47:01.397Z,7.60
2022-11-16T12:48:01.400Z,10.00
2022-11-16T12:49:01.367Z,14.90
2022-11-16T12:50:02.365Z,11.40
2022-11-16T12:51:01.358Z,10.10
2022-11-16T12:52:01.342Z,11.40